createdAt,value
2018-12-20T00:00:08.465Z,31.47
2018-12-20T00:02:35.012Z,33.37
2018-12-20T00:05:01.480Z,29.13
2018-12-20T00:07:27.987Z,29.60
2018-12-20T00:09:54.294Z,32.17
2018-12-20T00:12:20.804Z,31.20
2018-12-20T00:14:47.173Z,31.77
2018-12-20T00:17:19.674Z,35.63
2018-12-20T00:19:45.973Z,31.30
2018-12-20T00:22:12.314Z,30.57
2018-12-20T00:24:38.812Z,33.80
2018-12-20T00:27:05.153Z,30.67
2018-12-20T00:29:31.517Z,32.77
2018-12-20T00:31:58.104Z,32.50
2018-12-20T00:34:24.510Z,29.53
2018-12-20T00:36:51.095Z,31.33
2018-12-20T00:39:17.460Z,31.47
2018-12-20T00:41:43.872Z,29.87
2018-12-20T00:44:10.205Z,37.10
2018-12-20T00:46:36.459Z,31.90
2018-12-20T00:49:03.058Z,35.13
2018-12-20T00:51:29.632Z,33.30
2018-12-20T00:53:56.005Z,33.73
2018-12-20T00:56:22.338Z,35.47
2018-12-20T00:58:48.766Z,33.17
2018-12-20T01:01:15.200Z,29.10
2018-12-20T01:03:41.556Z,33.30
2018-12-20T01:06:07.861Z,35.37
2018-12-20T01:08:34.219Z,34.43
2018-12-20T01:11:00.762Z,33.20
2018-12-20T01:13:27.166Z,39.30
2018-12-20T01:15:53.612Z,34.30
2018-12-20T01:18:19.806Z,33.07
2018-12-20T01:20:46.234Z,37.17
2018-12-20T01:23:12.613Z,32.40
2018-12-20T01:25:39.094Z,34.17
2018-12-20T01:28:05.667Z,34.13
2018-12-20T01:30:32.073Z,36.70
2018-12-20T01:32:58.413Z,34.97
2018-12-20T01:35:24.735Z,32.57
2018-12-20T01:37:51.208Z,34.37
2018-12-20T01:40:17.703Z,33.37
2018-12-20T01:42:44.379Z,34.00
2018-12-20T01:45:10.999Z,36.40
2018-12-20T01:47:37.471Z,34.53
2018-12-20T01:50:05.940Z,40.10
2018-12-20T01:52:32.400Z,35.13
2018-12-20T01:54:59.047Z,33.47
2018-12-20T01:57:25.584Z,32.60
2018-12-20T01:59:51.870Z,34.80
2018-12-20T02:02:18.236Z,34.20
2018-12-20T02:04:44.511Z,38.83
2018-12-20T02:07:10.797Z,34.20
2018-12-20T02:09:37.242Z,34.27
2018-12-20T02:12:03.684Z,36.07
2018-12-20T02:14:30.086Z,37.60
2018-12-20T02:16:56.647Z,34.63
2018-12-20T02:19:23.145Z,38.07
2018-12-20T02:21:49.642Z,36.47
2018-12-20T02:24:15.919Z,35.47
2018-12-20T02:26:42.411Z,38.40
2018-12-20T02:29:08.748Z,34.57
2018-12-20T02:31:35.031Z,37.40
2018-12-20T02:34:01.861Z,37.90
2018-12-20T02:36:28.383Z,36.77
2018-12-20T02:38:54.899Z,37.27
2018-12-20T02:41:21.433Z,37.17
2018-12-20T02:43:47.955Z,37.73
2018-12-20T02:46:14.412Z,38.93
2018-12-20T02:48:40.795Z,35.67
2018-12-20T02:51:07.233Z,38.37
2018-12-20T02:53:33.741Z,34.83
2018-12-20T02:56:00.148Z,38.90
2018-12-20T02:58:26.344Z,39.03
2018-12-20T03:00:52.621Z,40.47
2018-12-20T03:03:19.137Z,37.67
2018-12-20T03:05:45.624Z,43.17
2018-12-20T03:08:12.019Z,38.97
2018-12-20T03:10:38.410Z,38.70
2018-12-20T03:13:05.150Z,40.73
2018-12-20T03:15:31.708Z,37.80
2018-12-20T03:17:58.346Z,40.40
2018-12-20T03:20:24.784Z,37.43
2018-12-20T03:22:51.081Z,39.37
2018-12-20T03:25:17.368Z,40.53
2018-12-20T03:27:43.862Z,39.63
2018-12-20T03:30:10.290Z,36.63
2018-12-20T03:32:36.587Z,37.47
2018-12-20T03:35:03.414Z,39.90
2018-12-20T03:37:29.688Z,42.70
2018-12-20T03:39:56.865Z,41.67
2018-12-20T03:42:23.470Z,35.27
2018-12-20T03:44:49.893Z,39.57
2018-12-20T03:47:16.325Z,40.67
2018-12-20T03:49:42.643Z,43.57
2018-12-20T03:52:09.064Z,40.63
2018-12-20T03:54:35.500Z,43.10
2018-12-20T03:57:01.795Z,39.27
2018-12-20T03:59:28.098Z,43.70
2018-12-20T04:01:54.521Z,41.77
2018-12-20T04:04:21.038Z,38.97
2018-12-20T04:06:47.441Z,41.30
2018-12-20T04:09:13.831Z,39.50
2018-12-20T04:11:40.288Z,41.03
2018-12-20T04:14:06.663Z,41.03
2018-12-20T04:16:33.521Z,41.33
2018-12-20T04:19:00.202Z,43.27
2018-12-20T04:21:26.555Z,38.00
2018-12-20T04:23:53.017Z,40.90
2018-12-20T04:26:19.459Z,38.97
2018-12-20T04:28:46.074Z,38.97
2018-12-20T04:31:12.628Z,38.70
2018-12-20T04:33:39.091Z,40.60
2018-12-20T04:36:05.636Z,39.77
2018-12-20T04:38:31.940Z,42.23
2018-12-20T04:40:58.220Z,40.90
2018-12-20T04:43:24.592Z,38.43
2018-12-20T04:45:51.053Z,39.27
2018-12-20T04:48:18.009Z,40.73
2018-12-20T04:50:45.113Z,43.90
2018-12-20T04:53:11.542Z,43.03
2018-12-20T04:55:38.073Z,35.83
2018-12-20T04:58:04.628Z,39.83
2018-12-20T05:00:30.974Z,39.83
2018-12-20T05:02:57.343Z,40.27
2018-12-20T05:05:24.111Z,43.60
2018-12-20T05:07:50.720Z,39.20
2018-12-20T05:10:17.106Z,41.00
2018-12-20T05:12:43.811Z,42.30
2018-12-20T05:15:10.549Z,39.80
2018-12-20T05:17:36.904Z,38.30
2018-12-20T05:20:03.898Z,42.37
2018-12-20T05:22:30.200Z,38.30
2018-12-20T05:24:56.594Z,40.80
2018-12-20T05:27:23.091Z,41.80
2018-12-20T05:29:49.507Z,42.50
2018-12-20T05:32:15.926Z,39.97
2018-12-20T05:34:42.293Z,41.30
2018-12-20T05:37:08.806Z,38.80
2018-12-20T05:39:35.479Z,40.20
2018-12-20T05:42:02.051Z,49.00
2018-12-20T05:44:28.449Z,43.10
2018-12-20T05:46:54.782Z,45.27
2018-12-20T05:49:21.147Z,41.63
2018-12-20T05:51:47.642Z,41.83
2018-12-20T05:54:14.116Z,42.60
2018-12-20T05:56:40.513Z,42.57
2018-12-20T05:59:06.850Z,40.77
2018-12-20T06:01:33.154Z,39.20
2018-12-20T06:03:59.577Z,38.73
2018-12-20T06:06:25.943Z,41.93
2018-12-20T06:08:52.675Z,38.93
2018-12-20T06:11:19.141Z,36.67
2018-12-20T06:13:45.636Z,40.97
2018-12-20T06:16:12.978Z,41.00
2018-12-20T06:18:39.846Z,42.77
2018-12-20T06:21:06.230Z,43.47
2018-12-20T06:23:32.531Z,43.23
2018-12-20T06:25:58.813Z,36.70
2018-12-20T06:28:25.116Z,38.40
2018-12-20T06:30:51.496Z,36.87
2018-12-20T06:33:17.801Z,41.13
2018-12-20T06:35:44.298Z,39.90
2018-12-20T06:38:10.572Z,39.20
2018-12-20T06:40:36.780Z,37.30
2018-12-20T06:43:03.059Z,39.67
2018-12-20T06:45:29.359Z,42.37
2018-12-20T06:47:55.721Z,42.30
2018-12-20T06:50:22.034Z,40.73
2018-12-20T06:52:48.320Z,40.37
2018-12-20T06:55:14.632Z,41.10
2018-12-20T06:57:41.028Z,38.60
2018-12-20T07:00:08.060Z,41.00
2018-12-20T07:02:34.257Z,38.20
2018-12-20T07:05:00.752Z,38.90
2018-12-20T07:07:26.945Z,37.00
2018-12-20T07:09:53.243Z,37.87
2018-12-20T07:12:19.516Z,38.17
2018-12-20T07:14:45.810Z,39.20
2018-12-20T07:17:12.116Z,39.97
2018-12-20T07:19:38.413Z,41.70
2018-12-20T07:22:04.698Z,42.83
2018-12-20T07:24:30.984Z,40.60
2018-12-20T07:26:57.316Z,38.70
2018-12-20T07:29:23.626Z,41.07
2018-12-20T07:31:49.927Z,40.40
2018-12-20T07:34:16.346Z,40.83
2018-12-20T07:36:42.622Z,40.43
2018-12-20T07:39:08.934Z,40.03
2018-12-20T07:41:35.255Z,46.57
2018-12-20T07:44:01.801Z,38.10
2018-12-20T07:46:28.077Z,42.13
2018-12-20T07:48:54.381Z,44.37
2018-12-20T07:51:20.650Z,38.10
2018-12-20T07:53:46.846Z,42.23
2018-12-20T07:56:13.124Z,42.83
2018-12-20T07:58:39.330Z,40.60
2018-12-20T08:01:05.726Z,41.80
2018-12-20T08:03:32.013Z,39.73
2018-12-20T08:05:58.435Z,40.50
2018-12-20T08:08:24.701Z,40.13
2018-12-20T08:10:51.147Z,37.77
2018-12-20T08:13:17.416Z,42.07
2018-12-20T08:15:43.722Z,42.63
2018-12-20T08:18:09.998Z,41.20
2018-12-20T08:20:36.431Z,40.87
2018-12-20T08:23:02.651Z,42.57
2018-12-20T08:25:28.939Z,38.40
2018-12-20T08:27:55.342Z,43.20
2018-12-20T08:30:21.794Z,43.70
2018-12-20T08:32:48.086Z,39.67
2018-12-20T08:35:14.518Z,40.80
2018-12-20T08:37:40.793Z,41.10
2018-12-20T08:40:07.713Z,42.30
2018-12-20T08:42:33.902Z,41.40
2018-12-20T08:45:00.282Z,39.13
2018-12-20T08:47:26.563Z,40.67
2018-12-20T08:49:52.862Z,36.50
2018-12-20T08:52:19.139Z,37.40
2018-12-20T08:54:45.444Z,40.13
2018-12-20T08:57:11.798Z,39.80
2018-12-20T08:59:38.027Z,42.63
2018-12-20T09:02:04.414Z,41.97
2018-12-20T09:04:30.737Z,39.07
2018-12-20T09:06:56.919Z,39.80
2018-12-20T09:09:23.287Z,42.23
2018-12-20T09:11:49.579Z,40.73
2018-12-20T09:14:16.292Z,43.80
2018-12-20T09:16:42.816Z,41.57
2018-12-20T09:19:09.014Z,39.80
2018-12-20T09:21:35.436Z,42.10
2018-12-20T09:24:01.945Z,39.73
2018-12-20T09:26:28.254Z,37.37
2018-12-20T09:28:54.540Z,42.50
2018-12-20T09:31:20.879Z,38.97
2018-12-20T09:33:47.145Z,43.40
2018-12-20T09:36:13.459Z,40.87
2018-12-20T09:38:39.734Z,37.97
2018-12-20T09:41:06.219Z,37.53
2018-12-20T09:43:32.873Z,38.50
2018-12-20T09:45:59.186Z,42.07
2018-12-20T09:48:25.569Z,36.47
2018-12-20T09:50:51.875Z,35.13
2018-12-20T09:53:18.146Z,39.87
2018-12-20T09:55:44.595Z,40.17
2018-12-20T09:58:10.860Z,38.03
2018-12-20T10:00:37.168Z,39.63
2018-12-20T10:03:03.450Z,37.33
2018-12-20T10:05:29.767Z,34.83
2018-12-20T10:07:56.058Z,34.27
2018-12-20T10:10:22.482Z,36.57
2018-12-20T10:12:48.750Z,37.17
2018-12-20T10:15:15.049Z,37.47
2018-12-20T10:17:41.327Z,34.10
2018-12-20T10:20:08.257Z,36.10
2018-12-20T10:22:34.558Z,35.37
2018-12-20T10:25:01.513Z,39.80
2018-12-20T10:27:31.357Z,34.70
2018-12-20T10:29:56.056Z,33.63
2018-12-20T10:32:22.341Z,32.70
2018-12-20T10:34:48.532Z,36.43
2018-12-20T10:37:14.878Z,36.03
2018-12-20T10:39:41.170Z,36.70
2018-12-20T10:42:07.491Z,35.80
2018-12-20T10:44:33.774Z,34.70
2018-12-20T10:47:02.129Z,33.83
2018-12-20T10:49:28.444Z,33.87
2018-12-20T10:51:54.753Z,35.30
2018-12-20T10:54:21.027Z,34.17
2018-12-20T10:56:47.326Z,34.30
2018-12-20T10:59:13.722Z,35.70
2018-12-20T11:01:46.184Z,33.97
2018-12-20T11:04:19.428Z,34.93
2018-12-20T11:06:51.987Z,34.20
2018-12-20T11:09:24.420Z,35.10
2018-12-20T11:11:56.843Z,33.80
2018-12-20T11:14:23.181Z,34.33
2018-12-20T11:16:49.391Z,35.20
2018-12-20T11:19:15.565Z,34.33
2018-12-20T11:21:41.874Z,38.90
2018-12-20T11:24:08.151Z,34.07
2018-12-20T11:26:34.454Z,30.47
2018-12-20T11:29:02.213Z,32.00
2018-12-20T11:31:28.572Z,30.93
2018-12-20T11:33:54.766Z,31.47
2018-12-20T11:36:20.975Z,31.27
2018-12-20T11:38:47.246Z,33.00
2018-12-20T11:41:13.570Z,31.47
2018-12-20T11:43:39.746Z,31.87
2018-12-20T11:46:05.945Z,33.73
2018-12-20T11:48:32.122Z,31.60
2018-12-20T11:50:58.427Z,32.40
2018-12-20T11:53:24.702Z,32.63
2018-12-20T11:55:51.016Z,32.63
2018-12-20T11:58:17.300Z,30.60
2018-12-20T12:00:43.621Z,32.13
2018-12-20T12:03:09.899Z,30.63
2018-12-20T12:05:36.183Z,28.70
2018-12-20T12:08:02.614Z,27.97
2018-12-20T12:10:28.908Z,28.30
2018-12-20T12:12:55.223Z,29.07
2018-12-20T12:15:21.500Z,29.70
2018-12-20T12:17:54.198Z,28.50
2018-12-20T12:20:16.266Z,29.20
2018-12-20T12:22:42.686Z,28.87
2018-12-20T12:25:08.871Z,30.20
2018-12-20T12:27:35.254Z,28.93
2018-12-20T12:30:01.676Z,29.20
2018-12-20T12:32:27.947Z,29.90
2018-12-20T12:34:54.220Z,30.50
2018-12-20T12:37:20.504Z,28.03
2018-12-20T12:39:46.687Z,30.10
2018-12-20T12:42:12.924Z,25.27
2018-12-20T12:44:39.201Z,27.93
2018-12-20T12:47:07.573Z,26.70
2018-12-20T12:49:33.766Z,29.63
2018-12-20T12:52:00.065Z,27.90
2018-12-20T12:54:26.260Z,27.33
2018-12-20T12:56:52.512Z,28.50
2018-12-20T12:59:18.803Z,28.87
2018-12-20T13:01:45.050Z,27.93
2018-12-20T13:04:11.286Z,29.23
2018-12-20T13:06:38.028Z,27.90
2018-12-20T13:09:04.857Z,27.47
2018-12-20T13:11:31.111Z,29.60
2018-12-20T13:13:57.266Z,27.67
2018-12-20T13:16:23.555Z,28.07
2018-12-20T13:18:49.803Z,29.77
2018-12-20T13:21:16.139Z,32.30
2018-12-20T13:23:42.397Z,29.67
2018-12-20T13:26:08.909Z,32.60
2018-12-20T13:28:35.698Z,30.70
2018-12-20T13:31:02.246Z,31.33
2018-12-20T13:33:28.569Z,30.73
2018-12-20T13:35:54.816Z,29.93
2018-12-20T13:38:21.132Z,29.90
2018-12-20T13:40:47.462Z,30.07
2018-12-20T13:43:13.716Z,30.87
2018-12-20T13:45:39.921Z,29.83
2018-12-20T13:48:06.209Z,29.17
2018-12-20T13:50:33.503Z,29.37
2018-12-20T13:52:59.795Z,31.03
2018-12-20T13:55:26.039Z,29.33
2018-12-20T13:57:52.323Z,29.03
2018-12-20T14:00:18.501Z,30.10
2018-12-20T14:02:44.918Z,29.70
2018-12-20T14:05:11.338Z,29.33
2018-12-20T14:07:37.767Z,29.60
2018-12-20T14:10:05.031Z,31.20
2018-12-20T14:12:31.332Z,32.60
2018-12-20T14:14:57.834Z,29.43
2018-12-20T14:17:24.084Z,28.27
2018-12-20T14:19:50.226Z,31.87
2018-12-20T14:22:16.404Z,27.90
2018-12-20T14:24:42.747Z,30.47
2018-12-20T14:27:09.052Z,31.00
2018-12-20T14:29:35.311Z,29.10
2018-12-20T14:32:01.566Z,32.00
2018-12-20T14:34:27.867Z,30.33
2018-12-20T14:36:54.152Z,30.07
2018-12-20T14:39:20.540Z,32.20
2018-12-20T14:41:46.854Z,30.40
2018-12-20T14:44:13.128Z,30.00
2018-12-20T14:46:39.433Z,32.23
2018-12-20T14:49:05.712Z,29.37
2018-12-20T14:51:31.958Z,28.50
2018-12-20T14:53:58.238Z,30.07
2018-12-20T14:56:24.528Z,29.87
2018-12-20T14:58:50.776Z,32.10
2018-12-20T15:01:17.076Z,32.57
2018-12-20T15:03:43.327Z,36.60
2018-12-20T15:06:09.507Z,31.40
2018-12-20T15:08:35.744Z,31.63
2018-12-20T15:11:02.038Z,34.90
2018-12-20T15:13:28.335Z,33.03
2018-12-20T15:15:54.576Z,31.83
2018-12-20T15:18:20.832Z,38.67
2018-12-20T15:20:47.175Z,33.97
2018-12-20T15:23:13.451Z,35.33
2018-12-20T15:25:39.709Z,32.90
2018-12-20T15:28:06.044Z,32.73
2018-12-20T15:30:32.300Z,32.03
2018-12-20T15:32:58.588Z,33.70
2018-12-20T15:35:25.019Z,33.60
2018-12-20T15:37:51.391Z,33.83
2018-12-20T15:40:17.764Z,36.10
2018-12-20T15:42:43.956Z,31.93
2018-12-20T15:45:10.217Z,33.73
2018-12-20T15:47:36.416Z,33.77
2018-12-20T15:50:04.781Z,33.07
2018-12-20T15:52:31.033Z,33.77
2018-12-20T15:54:57.420Z,34.97
2018-12-20T15:57:23.667Z,33.33
2018-12-20T15:59:49.944Z,33.60
2018-12-20T16:02:16.244Z,30.93
2018-12-20T16:04:42.485Z,38.93
2018-12-20T16:07:08.847Z,35.93
2018-12-20T16:09:35.174Z,35.97
2018-12-20T16:12:01.647Z,37.00
2018-12-20T16:14:28.003Z,34.47
2018-12-20T16:16:54.268Z,34.03
2018-12-20T16:19:20.631Z,41.83
2018-12-20T16:21:46.771Z,36.53
2018-12-20T16:24:13.065Z,39.70
2018-12-20T16:26:39.393Z,36.50
2018-12-20T16:29:05.616Z,36.00
2018-12-20T16:31:31.865Z,36.80
2018-12-20T16:33:58.284Z,39.37
2018-12-20T16:36:24.533Z,40.53
2018-12-20T16:38:50.892Z,38.13
2018-12-20T16:41:17.158Z,38.10
2018-12-20T16:43:43.452Z,41.30
2018-12-20T16:46:09.864Z,39.53
2018-12-20T16:48:36.059Z,43.03
2018-12-20T16:51:02.729Z,40.40
2018-12-20T16:53:28.984Z,40.93
2018-12-20T16:55:55.347Z,45.00
2018-12-20T16:58:21.658Z,41.70
2018-12-20T17:00:47.958Z,39.70
2018-12-20T17:03:14.244Z,43.57
2018-12-20T17:05:40.642Z,41.70
2018-12-20T17:08:06.826Z,40.00
2018-12-20T17:10:33.091Z,45.13
2018-12-20T17:12:59.426Z,42.50
2018-12-20T17:15:25.789Z,43.30
2018-12-20T17:17:51.999Z,42.97
2018-12-20T17:20:18.281Z,42.87
2018-12-20T17:22:44.558Z,40.33
2018-12-20T17:25:10.972Z,37.87
2018-12-20T17:27:37.383Z,43.57
2018-12-20T17:30:05.890Z,40.17
2018-12-20T17:32:32.135Z,42.70
2018-12-20T17:34:58.412Z,40.70
2018-12-20T17:37:24.650Z,47.73
2018-12-20T17:39:50.791Z,45.03
2018-12-20T17:42:17.071Z,39.80
2018-12-20T17:44:43.307Z,48.77
2018-12-20T17:47:09.655Z,45.30
2018-12-20T17:49:35.876Z,45.97
2018-12-20T17:52:02.353Z,37.83
2018-12-20T17:54:28.607Z,47.17
2018-12-20T17:56:54.911Z,43.33
2018-12-20T17:59:21.186Z,44.00
2018-12-20T18:01:47.576Z,43.93
2018-12-20T18:04:13.867Z,43.10
2018-12-20T18:06:40.171Z,46.30
2018-12-20T18:09:07.755Z,48.37
2018-12-20T18:11:34.168Z,42.87
2018-12-20T18:14:00.450Z,44.57
2018-12-20T18:16:26.731Z,47.17
2018-12-20T18:18:53.291Z,48.57
2018-12-20T18:21:20.078Z,47.97
2018-12-20T18:23:46.863Z,48.93
2018-12-20T18:26:13.804Z,47.25
2018-12-20T18:28:40.606Z,46.43
2018-12-20T18:31:07.276Z,44.27
2018-12-20T18:33:34.099Z,45.60
2018-12-20T18:36:01.176Z,45.93
2018-12-20T18:38:28.397Z,44.57
2018-12-20T18:40:55.355Z,48.10
2018-12-20T18:43:22.378Z,43.47
2018-12-20T18:45:49.264Z,45.80
2018-12-20T18:48:15.561Z,44.53
2018-12-20T18:50:42.610Z,49.70
2018-12-20T18:53:09.142Z,45.90
2018-12-20T18:55:35.416Z,46.73
2018-12-20T18:58:01.724Z,43.80
2018-12-20T19:00:27.972Z,47.87
2018-12-20T19:02:54.231Z,49.97
2018-12-20T19:05:20.477Z,51.70
2018-12-20T19:07:46.658Z,45.90
2018-12-20T19:10:12.934Z,44.67
2018-12-20T19:12:39.367Z,45.13
2018-12-20T19:15:07.609Z,47.87
2018-12-20T19:17:34.766Z,46.63
2018-12-20T19:20:02.101Z,43.47
2018-12-20T19:22:28.412Z,47.77
2018-12-20T19:24:54.715Z,49.60
2018-12-20T19:27:21.574Z,60.90
2018-12-20T19:29:47.922Z,59.13
2018-12-20T19:32:14.187Z,48.63
2018-12-20T19:34:40.468Z,51.43
2018-12-20T19:37:06.630Z,47.30
2018-12-20T19:39:34.172Z,44.47
2018-12-20T19:42:02.524Z,46.73
2018-12-20T19:44:29.248Z,45.30
2018-12-20T19:46:56.132Z,47.83
2018-12-20T19:49:22.933Z,48.47
2018-12-20T19:51:50.012Z,47.77
2018-12-20T19:54:17.212Z,47.30
2018-12-20T19:56:44.308Z,45.17
2018-12-20T19:59:11.499Z,45.27
2018-12-20T20:01:38.712Z,44.53
2018-12-20T20:04:05.833Z,49.50
2018-12-20T20:06:32.980Z,43.40
2018-12-20T20:09:00.098Z,45.80
2018-12-20T20:11:26.868Z,41.27
2018-12-20T20:13:54.156Z,43.60
2018-12-20T20:16:21.381Z,43.20
2018-12-20T20:18:48.343Z,46.00
2018-12-20T20:21:15.858Z,41.63
2018-12-20T20:23:42.728Z,43.83
2018-12-20T20:26:09.611Z,48.87
2018-12-20T20:28:36.356Z,42.70
2018-12-20T20:31:03.328Z,41.50
2018-12-20T20:33:29.635Z,40.90
2018-12-20T20:35:55.888Z,45.13
2018-12-20T20:38:22.442Z,43.90
2018-12-20T20:40:49.908Z,40.37
2018-12-20T20:43:16.753Z,45.00
2018-12-20T20:45:43.085Z,41.13
2018-12-20T20:48:09.383Z,47.43
2018-12-20T20:50:35.574Z,43.67
2018-12-20T20:53:02.998Z,45.53
2018-12-20T20:55:29.335Z,49.73
2018-12-20T20:57:55.727Z,47.37
2018-12-20T21:00:22.032Z,46.10
2018-12-20T21:02:48.603Z,47.30
2018-12-20T21:05:19.857Z,48.13
2018-12-20T21:07:46.246Z,46.13
2018-12-20T21:10:12.430Z,44.80
2018-12-20T21:12:38.781Z,40.57
2018-12-20T21:15:07.545Z,44.27
2018-12-20T21:17:33.951Z,47.10
2018-12-20T21:20:00.431Z,45.10
2018-12-20T21:22:26.596Z,45.93
2018-12-20T21:24:52.889Z,47.53
2018-12-20T21:27:19.115Z,44.50
2018-12-20T21:29:45.535Z,43.33
2018-12-20T21:32:11.909Z,42.20
2018-12-20T21:34:38.121Z,39.87
2018-12-20T21:37:04.443Z,43.60
2018-12-20T21:39:30.725Z,41.23
2018-12-20T21:41:56.900Z,40.60
2018-12-20T21:44:23.208Z,43.93
2018-12-20T21:46:49.458Z,39.53
2018-12-20T21:49:15.749Z,44.87
2018-12-20T21:51:42.083Z,40.70
2018-12-20T21:54:08.327Z,40.73
2018-12-20T21:56:34.681Z,40.50
2018-12-20T21:59:01.167Z,41.33
2018-12-20T22:01:27.523Z,40.53
2018-12-20T22:03:53.803Z,42.73
2018-12-20T22:06:20.094Z,40.57
2018-12-20T22:08:46.721Z,37.73
2018-12-20T22:11:13.080Z,43.30
2018-12-20T22:13:39.384Z,36.97
2018-12-20T22:16:05.630Z,36.27
2018-12-20T22:18:32.145Z,43.40
2018-12-20T22:20:58.480Z,35.63
2018-12-20T22:23:24.936Z,39.23
2018-12-20T22:25:51.183Z,34.50
2018-12-20T22:28:17.489Z,37.97
2018-12-20T22:30:43.739Z,34.60
2018-12-20T22:33:10.043Z,39.33
2018-12-20T22:35:36.255Z,37.13
2018-12-20T22:38:02.601Z,33.43
2018-12-20T22:40:28.847Z,33.73
2018-12-20T22:42:55.203Z,33.73
2018-12-20T22:45:21.494Z,31.40
2018-12-20T22:47:47.907Z,35.00
2018-12-20T22:50:14.214Z,35.97
2018-12-20T22:52:40.368Z,32.00
2018-12-20T22:55:06.878Z,34.13
2018-12-20T22:57:33.124Z,34.20
2018-12-20T22:59:59.412Z,33.40
2018-12-20T23:02:25.764Z,36.70
2018-12-20T23:04:52.070Z,32.13
2018-12-20T23:07:19.265Z,33.07
2018-12-20T23:09:46.312Z,34.00
2018-12-20T23:12:12.732Z,34.57
2018-12-20T23:14:39.017Z,32.43
2018-12-20T23:17:05.387Z,34.30
2018-12-20T23:19:31.687Z,31.73
2018-12-20T23:21:57.933Z,32.07
2018-12-20T23:24:24.198Z,32.27
2018-12-20T23:26:50.444Z,30.70
2018-12-20T23:29:16.655Z,30.90
2018-12-20T23:31:43.019Z,31.50
2018-12-20T23:34:09.296Z,30.50
2018-12-20T23:36:35.545Z,37.67
2018-12-20T23:39:03.977Z,32.20
2018-12-20T23:41:30.215Z,32.83
2018-12-20T23:43:56.379Z,33.83
2018-12-20T23:46:22.728Z,36.57
2018-12-20T23:48:49.119Z,30.63
2018-12-20T23:51:15.362Z,31.33
2018-12-20T23:53:41.651Z,32.10
2018-12-20T23:56:07.910Z,35.27
2018-12-20T23:58:34.176Z,32.33
